createdAt,value
2018-12-29T00:01:46.740Z,23.57
2018-12-29T00:03:47.576Z,20.20
2018-12-29T00:05:48.873Z,22.07
2018-12-29T00:07:49.697Z,21.47
2018-12-29T00:09:50.844Z,21.37
2018-12-29T00:11:51.670Z,23.03
2018-12-29T00:13:52.516Z,21.33
2018-12-29T00:15:53.341Z,21.93
2018-12-29T00:17:54.201Z,21.40
2018-12-29T00:19:55.033Z,21.80
2018-12-29T00:21:56.132Z,23.20
2018-12-29T00:23:56.989Z,22.87
2018-12-29T00:25:57.817Z,21.63
2018-12-29T00:27:58.645Z,22.43
2018-12-29T00:29:59.493Z,24.20
2018-12-29T00:32:00.342Z,22.33
2018-12-29T00:34:01.205Z,22.20
2018-12-29T00:36:02.044Z,21.43
2018-12-29T00:38:02.872Z,21.57
2018-12-29T00:40:03.720Z,24.47
2018-12-29T00:42:04.577Z,23.57
2018-12-29T00:44:05.406Z,22.07
2018-12-29T00:46:06.252Z,22.03
2018-12-29T00:48:07.112Z,22.67
2018-12-29T00:50:08.315Z,22.57
2018-12-29T00:52:09.148Z,22.97
2018-12-29T00:54:09.994Z,22.07
2018-12-29T00:56:10.821Z,21.77
2018-12-29T00:58:11.649Z,22.33
2018-12-29T01:00:12.496Z,21.47
2018-12-29T01:02:13.349Z,22.73
2018-12-29T01:04:14.201Z,21.83
2018-12-29T01:06:15.380Z,22.60
2018-12-29T01:08:16.308Z,22.80
2018-12-29T01:10:17.153Z,24.03
2018-12-29T01:12:17.984Z,24.07
2018-12-29T01:14:18.833Z,23.60
2018-12-29T01:16:19.673Z,24.40
2018-12-29T01:18:20.492Z,24.17
2018-12-29T01:20:21.361Z,24.83
2018-12-29T01:22:22.180Z,23.27
2018-12-29T01:24:23.020Z,25.07
2018-12-29T01:26:24.244Z,23.53
2018-12-29T01:28:25.089Z,23.00
2018-12-29T01:30:26.224Z,23.60
2018-12-29T01:32:27.052Z,23.23
2018-12-29T01:34:27.901Z,24.50
2018-12-29T01:36:28.724Z,22.70
2018-12-29T01:38:29.946Z,23.43
2018-12-29T01:40:30.787Z,23.47
2018-12-29T01:42:31.623Z,23.87
2018-12-29T01:44:32.464Z,24.47
2018-12-29T01:46:33.292Z,23.63
2018-12-29T01:48:34.537Z,23.40
2018-12-29T01:50:35.369Z,23.33
2018-12-29T01:52:36.200Z,22.27
2018-12-29T01:54:37.029Z,21.10
2018-12-29T01:56:37.897Z,21.47
2018-12-29T01:58:38.724Z,22.07
2018-12-29T02:00:39.557Z,21.70
2018-12-29T02:02:40.401Z,22.03
2018-12-29T02:04:41.261Z,22.23
2018-12-29T02:06:42.092Z,21.60
2018-12-29T02:08:42.940Z,22.23
2018-12-29T02:10:43.788Z,22.40
2018-12-29T02:12:44.925Z,22.10
2018-12-29T02:14:45.768Z,22.33
2018-12-29T02:16:46.901Z,21.80
2018-12-29T02:18:47.754Z,21.50
2018-12-29T02:20:48.585Z,22.20
2018-12-29T02:22:49.416Z,22.40
2018-12-29T02:24:50.269Z,22.70
2018-12-29T02:26:51.143Z,22.83
2018-12-29T02:28:51.976Z,22.27
2018-12-29T02:30:52.805Z,21.80
2018-12-29T02:32:53.980Z,20.67
2018-12-29T02:34:54.809Z,22.13
2018-12-29T02:36:55.656Z,22.17
2018-12-29T02:38:56.492Z,23.23
2018-12-29T02:40:57.317Z,22.90
2018-12-29T02:42:58.176Z,21.63
2018-12-29T02:44:58.997Z,23.40
2018-12-29T02:46:59.924Z,23.27
2018-12-29T02:49:00.782Z,22.83
2018-12-29T02:51:02.006Z,24.30
2018-12-29T02:53:02.836Z,24.07
2018-12-29T02:55:03.667Z,22.03
2018-12-29T02:57:04.504Z,21.63
2018-12-29T02:59:05.375Z,21.83
2018-12-29T03:01:06.233Z,22.47
2018-12-29T03:03:07.093Z,22.10
2018-12-29T03:05:07.912Z,22.00
2018-12-29T03:07:08.742Z,21.20
2018-12-29T03:09:09.919Z,21.73
2018-12-29T03:11:10.764Z,22.70
2018-12-29T03:13:11.596Z,21.83
2018-12-29T03:15:12.425Z,22.60
2018-12-29T03:17:13.273Z,21.07
2018-12-29T03:19:14.136Z,21.63
2018-12-29T03:21:16.103Z,20.27
2018-12-29T03:23:17.194Z,19.87
2018-12-29T03:25:18.041Z,20.07
2018-12-29T03:27:18.870Z,20.47
2018-12-29T03:29:19.722Z,20.33
2018-12-29T03:31:20.545Z,19.87
2018-12-29T03:33:21.414Z,20.63
2018-12-29T03:35:22.513Z,20.17
2018-12-29T03:37:23.348Z,19.70
2018-12-29T03:39:24.172Z,20.30
2018-12-29T03:41:25.019Z,19.87
2018-12-29T03:43:25.857Z,21.87
2018-12-29T03:45:26.714Z,21.10
2018-12-29T03:47:27.561Z,21.90
2018-12-29T03:49:28.401Z,20.53
2018-12-29T03:51:29.260Z,21.57
2018-12-29T03:53:30.109Z,21.27
2018-12-29T03:55:31.205Z,20.47
2018-12-29T03:57:32.053Z,20.77
2018-12-29T03:59:33.174Z,20.87
2018-12-29T04:01:34.273Z,22.10
2018-12-29T04:03:35.100Z,20.73
2018-12-29T04:05:35.938Z,20.63
2018-12-29T04:07:36.776Z,21.40
2018-12-29T04:09:37.723Z,21.67
2018-12-29T04:11:38.753Z,21.77
2018-12-29T04:13:39.601Z,21.50
2018-12-29T04:15:40.441Z,23.37
2018-12-29T04:17:41.278Z,24.73
2018-12-29T04:19:42.125Z,22.23
2018-12-29T04:21:42.953Z,22.63
2018-12-29T04:23:44.112Z,23.60
2018-12-29T04:25:44.941Z,23.73
2018-12-29T04:27:45.778Z,23.90
2018-12-29T04:29:46.626Z,23.20
2018-12-29T04:31:47.457Z,22.80
2018-12-29T04:33:48.285Z,23.23
2018-12-29T04:35:49.133Z,23.37
2018-12-29T04:37:49.956Z,23.63
2018-12-29T04:39:50.866Z,23.03
2018-12-29T04:41:51.751Z,24.00
2018-12-29T04:43:52.576Z,22.60
2018-12-29T04:45:53.426Z,24.40
2018-12-29T04:47:54.281Z,23.50
2018-12-29T04:49:55.124Z,23.27
2018-12-29T04:51:55.964Z,25.13
2018-12-29T04:53:57.121Z,24.93
2018-12-29T04:55:57.973Z,23.17
2018-12-29T04:57:58.809Z,24.30
2018-12-29T04:59:59.628Z,24.57
2018-12-29T05:02:00.483Z,24.97
2018-12-29T05:04:01.318Z,24.47
2018-12-29T05:06:02.165Z,25.20
2018-12-29T05:08:03.552Z,25.17
2018-12-29T05:10:04.381Z,24.90
2018-12-29T05:12:05.228Z,25.20
2018-12-29T05:14:06.067Z,25.00
2018-12-29T05:16:12.810Z,25.17
2018-12-29T05:18:09.648Z,24.80
2018-12-29T05:20:10.492Z,24.80
2018-12-29T05:22:11.689Z,26.50
2018-12-29T05:24:12.546Z,25.13
2018-12-29T05:26:13.379Z,24.50
2018-12-29T05:28:14.232Z,24.60
2018-12-29T05:30:15.066Z,24.43
2018-12-29T05:32:15.888Z,24.33
2018-12-29T05:34:16.742Z,24.10
2018-12-29T05:36:17.569Z,24.60
2018-12-29T05:38:18.421Z,20.87
2018-12-29T05:40:19.254Z,20.53
2018-12-29T05:42:20.076Z,20.83
2018-12-29T05:44:20.921Z,19.87
2018-12-29T05:46:21.768Z,21.87
2018-12-29T05:48:22.601Z,20.53
2018-12-29T05:50:23.428Z,20.43
2018-12-29T05:52:24.555Z,20.33
2018-12-29T05:54:25.390Z,19.73
2018-12-29T05:56:26.229Z,20.77
2018-12-29T05:58:27.058Z,21.27
2018-12-29T06:00:27.896Z,20.20
2018-12-29T06:02:28.740Z,21.10
2018-12-29T06:04:29.584Z,21.60
2018-12-29T06:06:30.676Z,21.80
2018-12-29T06:08:31.503Z,21.90
2018-12-29T06:10:32.656Z,23.23
2018-12-29T06:12:33.488Z,21.87
2018-12-29T06:14:34.337Z,22.60
2018-12-29T06:16:35.164Z,22.70
2018-12-29T06:18:36.001Z,23.50
2018-12-29T06:20:36.857Z,23.73
2018-12-29T06:22:37.680Z,23.30
2018-12-29T06:24:38.545Z,22.90
2018-12-29T06:26:39.369Z,23.07
2018-12-29T06:28:40.204Z,23.63
2018-12-29T06:30:41.040Z,24.03
2018-12-29T06:32:41.876Z,23.60
2018-12-29T06:34:42.727Z,23.40
2018-12-29T06:36:43.561Z,23.50
2018-12-29T06:38:44.393Z,24.20
2018-12-29T06:40:45.273Z,24.47
2018-12-29T06:42:46.115Z,22.47
2018-12-29T06:44:46.957Z,23.77
2018-12-29T06:46:47.804Z,23.87
2018-12-29T06:48:48.656Z,23.27
2018-12-29T06:50:49.940Z,22.07
2018-12-29T06:52:50.773Z,23.30
2018-12-29T06:54:51.596Z,23.30
2018-12-29T06:56:52.452Z,23.50
2018-12-29T06:58:53.572Z,24.87
2018-12-29T07:00:54.424Z,22.97
2018-12-29T07:02:55.252Z,24.60
2018-12-29T07:04:56.085Z,24.27
2018-12-29T07:06:57.332Z,24.27
2018-12-29T07:08:58.162Z,22.77
2018-12-29T07:10:59.009Z,24.07
2018-12-29T07:12:59.867Z,23.97
2018-12-29T07:15:01.067Z,23.53
2018-12-29T07:17:01.909Z,24.40
2018-12-29T07:19:03.025Z,24.23
2018-12-29T07:21:04.291Z,23.03
2018-12-29T07:23:05.148Z,23.87
2018-12-29T07:25:05.969Z,23.07
2018-12-29T07:27:06.793Z,22.17
2018-12-29T07:29:07.636Z,23.57
2018-12-29T07:31:08.496Z,23.33
2018-12-29T07:33:09.336Z,23.30
2018-12-29T07:35:10.176Z,23.23
2018-12-29T07:37:11.048Z,22.20
2018-12-29T07:39:12.441Z,23.17
2018-12-29T07:41:13.293Z,21.23
2018-12-29T07:43:14.128Z,22.70
2018-12-29T07:45:14.964Z,22.77
2018-12-29T07:47:15.820Z,22.63
2018-12-29T07:49:16.640Z,21.47
2018-12-29T07:51:17.468Z,22.40
2018-12-29T07:53:18.345Z,22.27
2018-12-29T07:55:19.201Z,21.50
2018-12-29T07:57:20.025Z,22.07
2018-12-29T07:59:21.141Z,21.20
2018-12-29T08:01:21.968Z,21.63
2018-12-29T08:03:22.816Z,22.00
2018-12-29T08:05:23.957Z,21.40
2018-12-29T08:07:24.790Z,21.33
2018-12-29T08:09:25.613Z,21.00
2018-12-29T08:11:26.465Z,22.77
2018-12-29T08:13:27.301Z,21.67
2018-12-29T08:15:29.147Z,21.73
2018-12-29T08:17:29.976Z,21.83
2018-12-29T08:19:31.097Z,21.73
2018-12-29T08:21:31.932Z,20.73
2018-12-29T08:23:32.811Z,21.90
2018-12-29T08:25:33.797Z,21.23
2018-12-29T08:27:34.762Z,21.43
2018-12-29T08:29:35.605Z,20.97
2018-12-29T08:31:36.458Z,21.77
2018-12-29T08:33:37.637Z,22.60
2018-12-29T08:35:38.485Z,22.53
2018-12-29T08:37:39.322Z,21.47
2018-12-29T08:39:40.160Z,21.37
2018-12-29T08:41:41.436Z,21.37
2018-12-29T08:43:42.269Z,23.23
2018-12-29T08:45:43.376Z,20.70
2018-12-29T08:47:44.209Z,21.57
2018-12-29T08:49:45.241Z,20.63
2018-12-29T08:51:46.064Z,21.33
2018-12-29T08:53:47.205Z,20.90
2018-12-29T08:55:48.057Z,21.40
2018-12-29T08:57:49.493Z,21.57
2018-12-29T08:59:50.335Z,21.27
2018-12-29T09:01:51.188Z,21.70
2018-12-29T09:03:52.020Z,21.80
2018-12-29T09:05:52.867Z,21.70
2018-12-29T09:07:53.724Z,21.53
2018-12-29T09:09:54.553Z,19.90
2018-12-29T09:11:55.389Z,20.30
2018-12-29T09:13:56.242Z,21.27
2018-12-29T09:15:57.076Z,20.57
2018-12-29T09:17:57.930Z,21.37
2018-12-29T09:19:59.052Z,21.13
2018-12-29T09:22:00.193Z,20.23
2018-12-29T09:24:01.061Z,20.63
2018-12-29T09:26:01.904Z,19.47
2018-12-29T09:28:02.741Z,20.77
2018-12-29T09:30:03.599Z,21.13
2018-12-29T09:32:04.451Z,19.93
2018-12-29T09:34:05.280Z,19.77
2018-12-29T09:36:06.112Z,20.83
2018-12-29T09:38:06.948Z,22.33
2018-12-29T09:40:07.808Z,20.17
2018-12-29T09:42:08.636Z,19.40
2018-12-29T09:44:09.485Z,20.90
2018-12-29T09:46:10.624Z,20.67
2018-12-29T09:48:11.448Z,21.23
2018-12-29T09:50:12.272Z,21.57
2018-12-29T09:52:13.156Z,22.50
2018-12-29T09:54:13.960Z,23.13
2018-12-29T09:56:14.809Z,22.00
2018-12-29T09:58:15.920Z,22.03
2018-12-29T10:00:16.752Z,23.50
2018-12-29T10:02:17.990Z,22.83
2018-12-29T10:04:18.821Z,22.53
2018-12-29T10:06:19.661Z,23.40
2018-12-29T10:08:20.500Z,23.17
2018-12-29T10:10:21.369Z,23.20
2018-12-29T10:12:22.209Z,23.53
2018-12-29T10:14:23.052Z,25.90
2018-12-29T10:16:23.909Z,26.60
2018-12-29T10:18:24.744Z,24.73
2018-12-29T10:20:25.567Z,24.77
2018-12-29T10:22:26.406Z,24.47
2018-12-29T10:24:27.256Z,24.17
2018-12-29T10:26:28.084Z,22.90
2018-12-29T10:28:28.908Z,24.03
2018-12-29T10:30:29.765Z,22.90
2018-12-29T10:32:30.584Z,24.37
2018-12-29T10:34:31.421Z,24.20
2018-12-29T10:36:32.268Z,23.87
2018-12-29T10:38:33.112Z,23.67
2018-12-29T10:40:33.965Z,23.53
2018-12-29T10:42:34.808Z,23.80
2018-12-29T10:44:35.653Z,24.83
2018-12-29T10:46:36.484Z,23.57
2018-12-29T10:48:37.333Z,23.13
2018-12-29T10:50:38.185Z,23.47
2018-12-29T10:52:39.352Z,24.70
2018-12-29T10:54:40.572Z,24.57
2018-12-29T10:56:41.392Z,24.50
2018-12-29T10:58:42.236Z,25.47
2018-12-29T11:00:43.082Z,25.03
2018-12-29T11:02:43.920Z,24.70
2018-12-29T11:04:44.756Z,24.57
2018-12-29T11:06:45.593Z,23.53
2018-12-29T11:08:46.450Z,24.10
2018-12-29T11:10:47.282Z,23.87
2018-12-29T11:12:48.364Z,23.73
2018-12-29T11:14:49.217Z,23.87
2018-12-29T11:16:50.052Z,24.87
2018-12-29T11:18:50.901Z,24.43
2018-12-29T11:20:51.737Z,24.90
2018-12-29T11:22:52.592Z,22.93
2018-12-29T11:24:53.425Z,23.87
2018-12-29T11:26:54.574Z,24.60
2018-12-29T11:28:55.423Z,24.23
2018-12-29T11:30:56.249Z,22.97
2018-12-29T11:32:57.371Z,21.97
2018-12-29T11:34:58.206Z,23.90
2018-12-29T11:36:59.413Z,22.53
2018-12-29T11:39:00.260Z,22.00
2018-12-29T11:41:01.105Z,22.27
2018-12-29T11:43:01.928Z,22.53
2018-12-29T11:45:02.773Z,23.47
2018-12-29T11:47:03.633Z,24.40
2018-12-29T11:49:04.857Z,23.80
2018-12-29T11:51:05.709Z,23.10
2018-12-29T11:53:06.556Z,22.03
2018-12-29T11:55:07.404Z,21.87
2018-12-29T11:57:08.249Z,22.93
2018-12-29T11:59:09.096Z,24.23
2018-12-29T12:01:09.953Z,24.27
2018-12-29T12:03:11.089Z,23.77
2018-12-29T12:05:12.176Z,24.03
2018-12-29T12:07:13.033Z,23.07
2018-12-29T12:09:13.860Z,25.23
2018-12-29T12:11:14.693Z,23.70
2018-12-29T12:13:15.841Z,24.70
2018-12-29T12:15:16.680Z,25.07
2018-12-29T12:17:17.525Z,24.63
2018-12-29T12:19:18.360Z,25.93
2018-12-29T12:21:19.184Z,25.93
2018-12-29T12:23:20.032Z,27.63
2018-12-29T12:25:20.864Z,27.33
2018-12-29T12:27:22.000Z,26.37
2018-12-29T12:29:23.261Z,25.00
2018-12-29T12:31:24.089Z,25.93
2018-12-29T12:33:25.172Z,24.87
2018-12-29T12:35:26.121Z,26.00
2018-12-29T12:37:26.952Z,26.77
2018-12-29T12:39:28.174Z,24.10
2018-12-29T12:41:29.423Z,23.30
2018-12-29T12:43:30.995Z,24.80
2018-12-29T12:45:32.248Z,24.10
2018-12-29T12:47:33.073Z,25.17
2018-12-29T12:49:33.913Z,23.47
2018-12-29T12:51:34.768Z,23.30
2018-12-29T12:53:35.601Z,24.20
2018-12-29T12:55:36.495Z,25.20
2018-12-29T12:57:37.948Z,25.60
2018-12-29T12:59:39.288Z,24.67
2018-12-29T13:01:40.142Z,25.17
2018-12-29T13:03:40.977Z,25.20
2018-12-29T13:05:41.809Z,23.73
2018-12-29T13:07:42.661Z,23.90
2018-12-29T13:09:43.520Z,25.20
2018-12-29T13:11:44.368Z,24.40
2018-12-29T13:13:45.229Z,25.43
2018-12-29T13:15:46.060Z,25.03
2018-12-29T13:17:47.092Z,26.00
2018-12-29T13:19:48.241Z,25.23
2018-12-29T13:21:49.074Z,25.40
2018-12-29T13:23:49.916Z,25.67
2018-12-29T13:25:50.757Z,25.20
2018-12-29T13:27:52.019Z,24.93
2018-12-29T13:29:52.849Z,26.17
2018-12-29T13:31:53.692Z,24.20
2018-12-29T13:33:55.104Z,26.60
2018-12-29T13:35:56.113Z,25.20
2018-12-29T13:37:56.949Z,26.07
2018-12-29T13:39:57.780Z,26.20
2018-12-29T13:41:58.621Z,25.40
2018-12-29T13:43:59.469Z,24.37
2018-12-29T13:46:00.305Z,23.57
2018-12-29T13:48:01.148Z,24.93
2018-12-29T13:50:02.007Z,25.17
2018-12-29T13:52:02.837Z,24.80
2018-12-29T13:54:03.688Z,25.83
2018-12-29T13:56:04.881Z,25.37
2018-12-29T13:58:05.717Z,25.70
2018-12-29T14:00:06.563Z,26.30
2018-12-29T14:02:07.421Z,26.33
2018-12-29T14:04:08.611Z,26.13
2018-12-29T14:06:09.441Z,25.53
2018-12-29T14:08:10.297Z,25.83
2018-12-29T14:10:11.421Z,25.57
2018-12-29T14:12:12.253Z,26.63
2018-12-29T14:14:13.094Z,26.07
2018-12-29T14:16:14.145Z,25.27
2018-12-29T14:18:14.972Z,25.13
2018-12-29T14:20:15.804Z,24.87
2018-12-29T14:22:16.649Z,25.47
2018-12-29T14:24:17.770Z,26.40
2018-12-29T14:26:19.097Z,25.97
2018-12-29T14:28:19.954Z,26.30
2018-12-29T14:30:20.790Z,26.63
2018-12-29T14:32:21.613Z,28.40
2018-12-29T14:34:22.475Z,27.40
2018-12-29T14:36:23.575Z,26.70
2018-12-29T14:38:24.704Z,35.90
2018-12-29T14:40:25.864Z,28.97
2018-12-29T14:42:26.701Z,34.47
2018-12-29T14:44:27.533Z,33.20
2018-12-29T14:46:28.384Z,38.60
2018-12-29T14:48:35.651Z,34.07
2018-12-29T14:50:32.484Z,26.97
2018-12-29T14:52:33.336Z,25.57
2018-12-29T14:54:34.164Z,28.03
2018-12-29T14:56:35.302Z,28.70
2018-12-29T14:58:36.701Z,27.27
2018-12-29T15:00:37.555Z,25.87
2018-12-29T15:02:38.385Z,25.97
2018-12-29T15:04:39.559Z,26.67
2018-12-29T15:06:40.796Z,25.97
2018-12-29T15:08:41.646Z,25.97
2018-12-29T15:10:42.476Z,27.40
2018-12-29T15:12:43.724Z,27.57
2018-12-29T15:14:44.858Z,25.63
2018-12-29T15:16:45.707Z,25.97
2018-12-29T15:18:46.560Z,27.30
2018-12-29T15:20:48.065Z,25.77
2018-12-29T15:22:49.193Z,26.87
2018-12-29T15:24:50.032Z,26.30
2018-12-29T15:26:50.889Z,26.13
2018-12-29T15:28:52.404Z,27.13
2018-12-29T15:30:53.338Z,26.53
2018-12-29T15:32:54.572Z,26.73
2018-12-29T15:34:55.416Z,27.50
2018-12-29T15:36:56.576Z,28.33
2018-12-29T15:38:57.804Z,28.07
2018-12-29T15:40:58.657Z,26.67
2018-12-29T15:42:59.516Z,26.97
2018-12-29T15:45:00.752Z,26.97
2018-12-29T15:47:01.685Z,26.67
2018-12-29T15:49:02.540Z,26.67
2018-12-29T15:51:03.369Z,27.53
2018-12-29T15:53:04.196Z,26.80
2018-12-29T15:55:05.057Z,27.13
2018-12-29T15:57:05.899Z,26.53
2018-12-29T15:59:06.732Z,27.30
2018-12-29T16:01:07.594Z,27.50
2018-12-29T16:03:08.428Z,28.60
2018-12-29T16:05:09.351Z,29.00
2018-12-29T16:07:10.523Z,29.63
2018-12-29T16:09:11.761Z,28.13
2018-12-29T16:11:13.018Z,27.60
2018-12-29T16:13:14.532Z,27.77
2018-12-29T16:15:15.364Z,29.43
2018-12-29T16:17:16.217Z,28.77
2018-12-29T16:19:17.628Z,28.30
2018-12-29T16:21:18.794Z,27.90
2018-12-29T16:23:19.628Z,27.83
2018-12-29T16:25:20.969Z,28.67
2018-12-29T16:27:21.802Z,28.13
2018-12-29T16:29:22.636Z,27.87
2018-12-29T16:31:23.485Z,28.47
2018-12-29T16:33:24.330Z,30.10
2018-12-29T16:35:25.558Z,29.33
2018-12-29T16:37:26.810Z,29.13
2018-12-29T16:39:28.017Z,28.83
2018-12-29T16:41:28.945Z,27.40
2018-12-29T16:43:30.409Z,28.23
2018-12-29T16:45:31.245Z,27.40
2018-12-29T16:47:32.071Z,28.87
2018-12-29T16:49:33.024Z,28.67
2018-12-29T16:51:33.976Z,27.97
2018-12-29T16:53:34.816Z,28.43
2018-12-29T16:55:35.648Z,28.30
2018-12-29T16:57:36.997Z,29.77
2018-12-29T16:59:37.843Z,27.63
2018-12-29T17:01:38.677Z,28.20
2018-12-29T17:03:39.873Z,27.47
2018-12-29T17:05:40.806Z,28.10
2018-12-29T17:07:41.732Z,27.43
2018-12-29T17:09:42.580Z,27.33
2018-12-29T17:11:52.013Z,27.37
2018-12-29T17:13:47.217Z,28.40
2018-12-29T17:15:48.045Z,28.87
2018-12-29T17:17:48.892Z,28.17
2018-12-29T17:19:49.758Z,27.03
2018-12-29T17:21:50.677Z,26.60
2018-12-29T17:23:51.544Z,27.73
2018-12-29T17:25:52.385Z,27.47
2018-12-29T17:27:53.215Z,27.43
2018-12-29T17:29:54.069Z,26.83
2018-12-29T17:31:54.908Z,29.13
2018-12-29T17:33:55.773Z,27.93
2018-12-29T17:35:56.705Z,28.43
2018-12-29T17:37:57.557Z,28.93
2018-12-29T17:39:58.391Z,28.23
2018-12-29T17:41:59.629Z,28.93
2018-12-29T17:44:00.478Z,28.50
2018-12-29T17:46:01.845Z,28.13
2018-12-29T17:48:02.776Z,28.33
2018-12-29T17:50:03.920Z,28.07
2018-12-29T17:52:04.773Z,29.47
2018-12-29T17:54:05.617Z,29.70
2018-12-29T17:56:06.865Z,28.83
2018-12-29T17:58:07.720Z,30.33
2018-12-29T18:00:08.569Z,31.37
2018-12-29T18:02:09.733Z,31.60
2018-12-29T18:04:10.761Z,28.27
2018-12-29T18:06:11.610Z,29.20
2018-12-29T18:08:12.550Z,29.00
2018-12-29T18:10:13.392Z,29.73
2018-12-29T18:12:14.349Z,29.20
2018-12-29T18:14:16.795Z,27.70
2018-12-29T18:16:17.749Z,27.93
2018-12-29T18:18:18.977Z,27.43
2018-12-29T18:20:19.812Z,29.03
2018-12-29T18:22:20.676Z,29.97
2018-12-29T18:24:21.505Z,29.33
2018-12-29T18:26:22.325Z,29.93
2018-12-29T18:28:23.462Z,27.93
2018-12-29T18:30:24.312Z,27.73
2018-12-29T18:32:25.516Z,28.20
2018-12-29T18:34:26.680Z,27.67
2018-12-29T18:36:27.513Z,28.40
2018-12-29T18:38:28.633Z,28.27
2018-12-29T18:40:29.790Z,28.17
2018-12-29T18:42:30.627Z,26.97
2018-12-29T18:44:31.477Z,27.10
2018-12-29T18:46:32.404Z,27.33
2018-12-29T18:48:33.252Z,28.00
2018-12-29T18:50:34.085Z,31.07
2018-12-29T18:52:34.913Z,29.07
2018-12-29T18:54:36.170Z,28.67
2018-12-29T18:56:37.008Z,27.93
2018-12-29T18:58:38.297Z,28.27
2018-12-29T19:00:39.157Z,29.07
2018-12-29T19:02:39.983Z,28.93
2018-12-29T19:04:41.128Z,28.47
2018-12-29T19:06:42.054Z,28.17
2018-12-29T19:08:42.908Z,28.37
2018-12-29T19:10:43.752Z,28.43
2018-12-29T19:12:45.076Z,27.47
2018-12-29T19:14:45.912Z,27.53
2018-12-29T19:16:46.758Z,27.17
2018-12-29T19:18:47.596Z,28.43
2018-12-29T19:20:49.000Z,28.37
2018-12-29T19:22:50.456Z,27.40
2018-12-29T19:24:51.280Z,28.30
2018-12-29T19:26:52.250Z,27.70
2018-12-29T19:28:53.076Z,26.93
2018-12-29T19:30:54.228Z,25.00
2018-12-29T19:32:55.443Z,27.37
2018-12-29T19:34:56.264Z,27.27
2018-12-29T19:36:57.318Z,27.63
2018-12-29T19:38:58.868Z,27.97
2018-12-29T19:40:59.693Z,25.87
2018-12-29T19:43:00.936Z,26.17
2018-12-29T19:45:01.786Z,26.33
2018-12-29T19:47:02.734Z,27.00
2018-12-29T19:49:04.240Z,25.93
2018-12-29T19:51:05.446Z,26.07
2018-12-29T19:53:06.629Z,25.87
2018-12-29T19:55:07.464Z,26.27
2018-12-29T19:57:08.371Z,26.90
2018-12-29T19:59:09.654Z,27.13
2018-12-29T20:01:10.512Z,26.30
2018-12-29T20:03:11.425Z,26.53
2018-12-29T20:05:12.577Z,26.80
2018-12-29T20:07:13.425Z,26.17
2018-12-29T20:09:14.568Z,25.80
2018-12-29T20:11:15.413Z,26.57
2018-12-29T20:13:16.268Z,25.33
2018-12-29T20:15:17.108Z,26.90
2018-12-29T20:17:17.954Z,25.03
2018-12-29T20:19:18.981Z,23.83
2018-12-29T20:21:20.140Z,24.53
2018-12-29T20:23:20.957Z,23.73
2018-12-29T20:25:21.805Z,23.33
2018-12-29T20:27:22.650Z,25.03
2018-12-29T20:29:23.500Z,23.07
2018-12-29T20:31:24.605Z,24.03
2018-12-29T20:33:25.440Z,24.20
2018-12-29T20:35:26.598Z,23.63
2018-12-29T20:37:27.624Z,21.83
2018-12-29T20:39:28.474Z,22.30
2018-12-29T20:41:29.588Z,21.23
2018-12-29T20:43:30.660Z,21.07
2018-12-29T20:45:31.518Z,20.90
2018-12-29T20:47:32.340Z,21.70
2018-12-29T20:49:33.167Z,21.80
2018-12-29T20:51:34.017Z,21.80
2018-12-29T20:53:34.872Z,22.53
2018-12-29T20:55:36.228Z,21.77
2018-12-29T20:57:37.053Z,22.20
2018-12-29T20:59:37.899Z,22.57
2018-12-29T21:01:39.058Z,21.93
2018-12-29T21:03:41.570Z,22.57
2018-12-29T21:05:42.533Z,21.97
2018-12-29T21:07:43.376Z,21.67
2018-12-29T21:09:44.212Z,22.53
2018-12-29T21:11:45.048Z,22.47
2018-12-29T21:13:46.285Z,22.07
2018-12-29T21:15:48.757Z,21.93
2018-12-29T21:17:49.830Z,22.07
2018-12-29T21:19:50.700Z,20.93
2018-12-29T21:21:51.558Z,22.33
2018-12-29T21:23:52.389Z,22.27
2018-12-29T21:25:53.333Z,21.63
2018-12-29T21:27:54.168Z,22.23
2018-12-29T21:29:55.032Z,21.67
2018-12-29T21:31:55.871Z,23.00
2018-12-29T21:33:56.697Z,23.17
2018-12-29T21:35:57.554Z,23.40
2018-12-29T21:37:58.392Z,21.90
2018-12-29T21:39:59.531Z,22.37
2018-12-29T21:42:00.396Z,21.33
2018-12-29T21:44:01.313Z,21.47
2018-12-29T21:46:02.164Z,21.00
2018-12-29T21:48:03.004Z,20.40
2018-12-29T21:50:03.853Z,19.77
2018-12-29T21:52:04.685Z,20.47
2018-12-29T21:54:05.829Z,19.63
2018-12-29T21:56:06.681Z,20.00
2018-12-29T21:58:08.006Z,20.63
2018-12-29T22:00:08.837Z,18.57
2018-12-29T22:02:09.691Z,18.90
2018-12-29T22:04:10.617Z,19.07
2018-12-29T22:06:11.456Z,18.53
2018-12-29T22:08:12.317Z,19.60
2018-12-29T22:10:13.248Z,18.53
2018-12-29T22:12:14.090Z,18.00
2018-12-29T22:14:14.929Z,18.90
2018-12-29T22:16:15.777Z,18.43
2018-12-29T22:18:16.635Z,18.43
2018-12-29T22:20:17.473Z,18.23
2018-12-29T22:22:18.327Z,20.50
2018-12-29T22:24:19.465Z,19.47
2018-12-29T22:26:20.615Z,19.27
2018-12-29T22:28:21.447Z,19.23
2018-12-29T22:30:22.268Z,18.30
2018-12-29T22:32:23.121Z,19.43
2018-12-29T22:34:23.976Z,18.10
2018-12-29T22:36:24.816Z,18.30
2018-12-29T22:38:25.696Z,19.10
2018-12-29T22:40:26.540Z,19.70
2018-12-29T22:42:27.788Z,18.07
2018-12-29T22:44:28.909Z,19.57
2018-12-29T22:46:29.735Z,19.47
2018-12-29T22:48:30.597Z,19.17
2018-12-29T22:50:31.425Z,20.17
2018-12-29T22:52:32.248Z,19.43
2018-12-29T22:54:33.100Z,18.80
2018-12-29T22:56:34.418Z,19.33
2018-12-29T22:58:35.260Z,17.93
2018-12-29T23:00:39.650Z,18.37
2018-12-29T23:02:40.581Z,19.30
2018-12-29T23:04:41.413Z,18.57
2018-12-29T23:06:43.109Z,18.87
2018-12-29T23:08:44.540Z,18.37
2018-12-29T23:10:45.681Z,18.00
2018-12-29T23:12:46.533Z,19.43
2018-12-29T23:14:47.372Z,19.07
2018-12-29T23:16:48.224Z,17.93
2018-12-29T23:18:49.052Z,19.80
2018-12-29T23:20:49.905Z,19.33
2018-12-29T23:22:50.761Z,18.63
2018-12-29T23:24:51.597Z,18.43
2018-12-29T23:26:52.748Z,18.87
2018-12-29T23:28:53.904Z,19.80
2018-12-29T23:30:54.728Z,18.37
2018-12-29T23:32:55.573Z,19.23
2018-12-29T23:34:56.517Z,17.70
2018-12-29T23:36:57.648Z,17.70
2018-12-29T23:38:58.503Z,17.47
2018-12-29T23:40:59.604Z,17.50
2018-12-29T23:43:00.437Z,17.97
2018-12-29T23:45:02.004Z,17.80
2018-12-29T23:47:03.241Z,17.10
2018-12-29T23:49:04.514Z,16.90
2018-12-29T23:51:05.831Z,16.80
2018-12-29T23:53:07.164Z,17.80
2018-12-29T23:55:08.317Z,17.37
2018-12-29T23:57:09.448Z,17.30
2018-12-29T23:59:11.398Z,16.13
